createdAt,value
2023-01-15T00:00:27.188Z,9.7
2023-01-15T00:03:27.239Z,9.6
2023-01-15T00:06:27.192Z,9.6
2023-01-15T00:09:27.194Z,9.6
2023-01-15T00:12:27.204Z,9.6
2023-01-15T00:15:27.197Z,9.6
2023-01-15T00:18:27.192Z,9.6
2023-01-15T00:21:27.195Z,9.7
2023-01-15T00:24:27.204Z,9.7
2023-01-15T00:27:27.251Z,9.6
2023-01-15T00:30:27.237Z,9.6
2023-01-15T00:33:27.263Z,9.6
2023-01-15T00:36:27.231Z,9.7
2023-01-15T00:39:27.251Z,9.6
2023-01-15T00:42:27.269Z,9.6
2023-01-15T00:45:27.261Z,9.6
2023-01-15T00:48:27.280Z,9.6
2023-01-15T00:51:27.285Z,9.6
2023-01-15T00:54:27.300Z,9.6
2023-01-15T00:57:27.303Z,9.6
2023-01-15T01:00:27.309Z,9.5
2023-01-15T01:03:27.325Z,9.5
2023-01-15T01:06:27.337Z,9.4
2023-01-15T01:09:27.352Z,9
2023-01-15T01:12:27.361Z,8.5
2023-01-15T01:15:27.368Z,8.3
2023-01-15T01:18:27.384Z,8
2023-01-15T01:21:27.396Z,7.8
2023-01-15T01:24:27.408Z,7.6
2023-01-15T01:27:27.425Z,7.5
2023-01-15T01:30:27.431Z,7.4
2023-01-15T01:33:27.443Z,7.3
2023-01-15T01:36:27.456Z,7.2
2023-01-15T01:39:27.467Z,7.1
2023-01-15T01:42:27.475Z,7
2023-01-15T01:45:27.544Z,6.9
2023-01-15T01:48:27.505Z,6.8
2023-01-15T01:51:27.539Z,6.8
2023-01-15T01:54:27.532Z,6.7
2023-01-15T01:57:27.550Z,6.6
2023-01-15T02:00:27.558Z,6.5
2023-01-15T02:03:27.573Z,6.3
2023-01-15T02:06:27.605Z,6.2
2023-01-15T02:09:27.614Z,6
2023-01-15T02:12:27.615Z,5.9
2023-01-15T02:15:27.628Z,5.8
2023-01-15T02:18:27.636Z,5.7
2023-01-15T02:21:27.654Z,5.7
2023-01-15T02:24:27.665Z,5.6
2023-01-15T02:27:27.679Z,5.6
2023-01-15T02:30:27.689Z,5.5
2023-01-15T02:33:27.705Z,5.5
2023-01-15T02:36:27.714Z,5.4
2023-01-15T02:39:27.732Z,5.4
2023-01-15T02:42:27.749Z,5.4
2023-01-15T02:45:27.807Z,5.4
2023-01-15T02:48:27.778Z,5.3
2023-01-15T02:51:27.807Z,5.3
2023-01-15T02:54:27.835Z,5.3
2023-01-15T02:57:27.820Z,5.3
2023-01-15T03:00:27.836Z,5.2
2023-01-15T03:03:27.847Z,5.2
2023-01-15T03:06:27.867Z,5.2
2023-01-15T03:09:27.885Z,5.2
2023-01-15T03:12:27.910Z,5.1
2023-01-15T03:15:27.908Z,5
2023-01-15T03:18:27.920Z,5
2023-01-15T03:21:27.975Z,5
2023-01-15T03:24:27.945Z,5
2023-01-15T03:27:27.979Z,4.9
2023-01-15T03:30:28.022Z,4.9
2023-01-15T03:33:28.017Z,4.9
2023-01-15T03:36:28.031Z,4.8
2023-01-15T03:39:28.025Z,4.8
2023-01-15T03:42:28.051Z,4.8
2023-01-15T03:45:28.069Z,4.7
2023-01-15T03:48:28.077Z,4.8
2023-01-15T03:51:28.091Z,4.7
2023-01-15T03:54:28.108Z,4.8
2023-01-15T03:57:28.127Z,4.8
2023-01-15T04:00:28.139Z,4.7
2023-01-15T04:03:28.146Z,4.8
2023-01-15T04:06:28.172Z,4.8
2023-01-15T04:09:28.183Z,4.8
2023-01-15T04:12:28.210Z,4.8
2023-01-15T04:15:28.242Z,4.8
2023-01-15T04:18:28.236Z,4.8
2023-01-15T04:21:28.262Z,4.8
2023-01-15T04:24:28.296Z,4.8
2023-01-15T04:27:28.290Z,4.8
2023-01-15T04:30:28.365Z,4.8
2023-01-15T04:33:28.321Z,4.8
2023-01-15T04:36:28.349Z,4.8
2023-01-15T04:39:28.355Z,4.8
2023-01-15T04:42:28.374Z,4.8
2023-01-15T04:45:28.398Z,4.8
2023-01-15T04:48:28.407Z,4.8
2023-01-15T04:51:28.422Z,4.7
2023-01-15T04:54:28.439Z,4.8
2023-01-15T04:57:28.449Z,4.7
2023-01-15T05:00:28.463Z,4.7
2023-01-15T05:03:28.478Z,4.8
2023-01-15T05:06:28.487Z,4.8
2023-01-15T05:09:28.503Z,4.8
2023-01-15T05:12:28.515Z,4.8
2023-01-15T05:15:28.537Z,4.8
2023-01-15T05:18:28.545Z,4.9
2023-01-15T05:21:28.557Z,4.9
2023-01-15T05:24:28.581Z,4.9
2023-01-15T05:27:28.692Z,4.8
2023-01-15T05:30:28.594Z,4.8
2023-01-15T05:33:28.608Z,4.9
2023-01-15T05:36:28.619Z,4.9
2023-01-15T05:39:28.651Z,4.9
2023-01-15T05:42:28.653Z,4.9
2023-01-15T05:45:28.667Z,4.9
2023-01-15T05:48:28.688Z,4.9
2023-01-15T05:51:28.701Z,5
2023-01-15T05:54:28.720Z,5
2023-01-15T05:57:28.728Z,5
2023-01-15T06:00:30.434Z,5
2023-01-15T06:03:28.809Z,5
2023-01-15T06:06:28.780Z,5
2023-01-15T06:09:28.804Z,5
2023-01-15T06:12:28.814Z,5
2023-01-15T06:15:28.835Z,5
2023-01-15T06:18:28.853Z,5
2023-01-15T06:21:28.868Z,5
2023-01-15T06:24:28.883Z,4.9
2023-01-15T06:27:28.900Z,4.8
2023-01-15T06:30:28.928Z,4.9
2023-01-15T06:33:28.935Z,4.8
2023-01-15T06:36:28.958Z,4.9
2023-01-15T06:39:28.978Z,4.9
2023-01-15T06:42:28.988Z,4.9
2023-01-15T06:45:29.013Z,4.9
2023-01-15T06:48:29.025Z,4.9
2023-01-15T06:51:31.028Z,4.9
2023-01-15T06:54:29.054Z,4.9
2023-01-15T06:57:29.116Z,4.9
2023-01-15T07:00:29.118Z,4.9
2023-01-15T07:03:29.111Z,4.8
2023-01-15T07:06:29.132Z,4.9
2023-01-15T07:09:29.148Z,4.9
2023-01-15T07:12:29.171Z,4.8
2023-01-15T07:15:29.188Z,4.8
2023-01-15T07:18:29.210Z,4.8
2023-01-15T07:21:29.221Z,4.7
2023-01-15T07:24:29.250Z,4.7
2023-01-15T07:27:29.258Z,4.7
2023-01-15T07:30:29.276Z,4.7
2023-01-15T07:33:29.294Z,4.8
2023-01-15T07:36:29.315Z,4.9
2023-01-15T07:39:29.328Z,4.9
2023-01-15T07:42:29.359Z,4.9
2023-01-15T07:45:29.379Z,5
2023-01-15T07:48:29.382Z,5
2023-01-15T07:51:29.398Z,5
2023-01-15T07:54:29.421Z,5.1
2023-01-15T07:57:29.437Z,5.1
2023-01-15T08:00:29.455Z,5.1
2023-01-15T08:03:29.478Z,5.1
2023-01-15T08:06:29.499Z,5.2
2023-01-15T08:09:29.525Z,5.2
2023-01-15T08:12:29.546Z,5.2
2023-01-15T08:15:29.559Z,5.2
2023-01-15T08:18:29.578Z,5.2
2023-01-15T08:21:29.594Z,5.2
2023-01-15T08:24:29.614Z,5.3
2023-01-15T08:27:29.653Z,5.3
2023-01-15T08:30:29.660Z,5.3
2023-01-15T08:33:29.670Z,5.3
2023-01-15T08:36:29.688Z,5.3
2023-01-15T08:39:29.707Z,5.4
2023-01-15T08:42:29.723Z,5.4
2023-01-15T08:45:29.743Z,5.4
2023-01-15T08:48:29.768Z,5.5
2023-01-15T08:51:29.786Z,5.5
2023-01-15T08:54:29.799Z,5.6
2023-01-15T08:57:29.822Z,5.6
2023-01-15T09:00:29.848Z,5.7
2023-01-15T09:03:29.856Z,5.7
2023-01-15T09:06:29.881Z,5.8
2023-01-15T09:09:29.905Z,5.8
2023-01-15T09:12:29.924Z,5.8
2023-01-15T09:15:29.937Z,5.9
2023-01-15T09:18:29.957Z,5.9
2023-01-15T09:21:29.971Z,5.9
2023-01-15T09:24:30.000Z,6
2023-01-15T09:27:30.019Z,6
2023-01-15T09:30:30.139Z,6
2023-01-15T09:33:30.052Z,6.1
2023-01-15T09:36:30.069Z,6.1
2023-01-15T09:39:30.085Z,6.1
2023-01-15T09:42:30.106Z,6.2
2023-01-15T09:45:30.131Z,6.2
2023-01-15T09:48:30.155Z,6.3
2023-01-15T09:51:30.173Z,6.3
2023-01-15T09:54:30.193Z,6.3
2023-01-15T09:57:30.211Z,6.4
2023-01-15T10:00:30.229Z,6.4
2023-01-15T10:03:30.283Z,6.5
2023-01-15T10:06:30.263Z,6.5
2023-01-15T10:09:30.267Z,6.6
2023-01-15T10:12:30.277Z,6.6
2023-01-15T10:15:30.311Z,6.6
2023-01-15T10:18:30.317Z,6.6
2023-01-15T10:21:30.321Z,6.7
2023-01-15T10:24:30.337Z,6.7
2023-01-15T10:27:30.340Z,6.7
2023-01-15T10:30:30.355Z,6.7
2023-01-15T10:33:30.693Z,6.8
2023-01-15T10:36:30.386Z,6.7
2023-01-15T10:39:30.396Z,6.8
2023-01-15T10:42:30.406Z,6.9
2023-01-15T10:45:30.415Z,6.9
2023-01-15T10:48:30.432Z,7
2023-01-15T10:51:30.457Z,7
2023-01-15T10:54:30.471Z,6.9
2023-01-15T10:57:30.486Z,6.8
2023-01-15T11:00:30.502Z,6.7
2023-01-15T11:03:30.521Z,6.7
2023-01-15T11:06:30.536Z,6.6
2023-01-15T11:09:30.559Z,6.6
2023-01-15T11:12:30.577Z,6.7
2023-01-15T11:15:30.646Z,6.7
2023-01-15T11:18:30.606Z,6.7
2023-01-15T11:21:30.620Z,6.7
2023-01-15T11:24:30.637Z,6.7
2023-01-15T11:27:30.645Z,6.5
2023-01-15T11:30:30.680Z,6.4
2023-01-15T11:33:30.696Z,6.3
2023-01-15T11:36:30.695Z,6.3
2023-01-15T11:39:30.706Z,6.3
2023-01-15T11:42:30.723Z,6.2
2023-01-15T11:45:30.733Z,6.2
2023-01-15T11:48:30.749Z,6.2
2023-01-15T11:51:30.784Z,6.2
2023-01-15T11:54:30.792Z,6.2
2023-01-15T11:57:30.796Z,6.4
2023-01-15T12:00:30.827Z,6.7
2023-01-15T12:03:30.873Z,6.9
2023-01-15T12:06:30.845Z,7
2023-01-15T12:09:30.858Z,7
2023-01-15T12:12:30.901Z,7.1
2023-01-15T12:15:30.883Z,7
2023-01-15T12:18:30.893Z,7.1
2023-01-15T12:21:30.908Z,7.1
2023-01-15T12:24:30.922Z,7.1
2023-01-15T12:27:30.940Z,7.1
2023-01-15T12:30:30.952Z,7.1
2023-01-15T12:33:30.960Z,7.1
2023-01-15T12:36:31.042Z,7.1
2023-01-15T12:39:30.990Z,7.1
2023-01-15T12:42:31.005Z,7.2
2023-01-15T12:45:31.011Z,7.3
2023-01-15T12:48:31.066Z,7.3
2023-01-15T12:51:31.032Z,7.4
2023-01-15T12:54:31.056Z,7.4
2023-01-15T12:57:31.058Z,7.4
2023-01-15T13:00:31.137Z,7.4
2023-01-15T13:03:31.082Z,7.4
2023-01-15T13:06:31.145Z,7.5
2023-01-15T13:09:31.110Z,7.5
2023-01-15T13:12:31.127Z,7.6
2023-01-15T13:15:31.137Z,7.7
2023-01-15T13:18:31.144Z,7.8
2023-01-15T13:21:31.163Z,7.7
2023-01-15T13:24:31.173Z,7.5
2023-01-15T13:27:31.175Z,7.5
2023-01-15T13:30:31.203Z,7.5
2023-01-15T13:33:31.262Z,7.5
2023-01-15T13:36:31.224Z,7.5
2023-01-15T13:39:31.238Z,7.5
2023-01-15T13:42:31.244Z,7.5
2023-01-15T13:45:31.304Z,7.5
2023-01-15T13:48:31.267Z,7.5
2023-01-15T13:51:31.283Z,7.4
2023-01-15T13:54:31.294Z,7.4
2023-01-15T13:57:31.305Z,7.3
2023-01-15T14:00:31.325Z,7.3
2023-01-15T14:03:31.346Z,7.3
2023-01-15T14:06:31.342Z,7.3
2023-01-15T14:09:31.349Z,7.3
2023-01-15T14:12:31.366Z,7.3
2023-01-15T14:15:31.377Z,7.2
2023-01-15T14:18:31.387Z,7.2
2023-01-15T14:21:31.471Z,7.2
2023-01-15T14:24:31.413Z,7.2
2023-01-15T14:27:31.419Z,7.2
2023-01-15T14:30:31.438Z,7.2
2023-01-15T14:33:31.450Z,7.2
2023-01-15T14:36:31.469Z,7.2
2023-01-15T14:39:31.478Z,7.2
2023-01-15T14:42:31.498Z,7.2
2023-01-15T14:45:31.531Z,7.2
2023-01-15T14:48:31.680Z,7.2
2023-01-15T14:51:31.529Z,7.2
2023-01-15T14:54:31.546Z,7.2
2023-01-15T14:57:31.558Z,7.2
2023-01-15T15:00:31.578Z,7.1
2023-01-15T15:03:31.592Z,7.1
2023-01-15T15:06:31.611Z,7.2
2023-01-15T15:09:31.637Z,7.2
2023-01-15T15:12:31.634Z,7.2
2023-01-15T15:15:31.644Z,7.2
2023-01-15T15:18:31.660Z,7.2
2023-01-15T15:21:31.666Z,7.2
2023-01-15T15:24:31.682Z,7.3
2023-01-15T15:27:31.714Z,7.3
2023-01-15T15:30:31.762Z,7.3
2023-01-15T15:33:31.731Z,7.3
2023-01-15T15:36:31.743Z,7.3
2023-01-15T15:39:31.753Z,7.2
2023-01-15T15:42:31.767Z,7.2
2023-01-15T15:45:31.774Z,7.2
2023-01-15T15:48:31.792Z,7.2
2023-01-15T15:51:31.803Z,7.2
2023-01-15T15:54:31.817Z,7.2
2023-01-15T15:57:31.827Z,7.3
2023-01-15T16:00:31.848Z,7.3
2023-01-15T16:03:33.211Z,7.3
2023-01-15T16:06:31.873Z,7.2
2023-01-15T16:09:31.885Z,7.1
2023-01-15T16:12:31.907Z,7.1
2023-01-15T16:15:31.976Z,7.1
2023-01-15T16:18:31.919Z,7.2
2023-01-15T16:21:31.942Z,7.2
2023-01-15T16:24:31.954Z,7.3
2023-01-15T16:27:31.956Z,7.3
2023-01-15T16:30:31.979Z,7.3
2023-01-15T16:33:31.987Z,7.3
2023-01-15T16:36:32.011Z,7.3
2023-01-15T16:39:32.017Z,7.3
2023-01-15T16:42:32.039Z,7.2
2023-01-15T16:45:32.048Z,7.3
2023-01-15T16:48:32.071Z,7.3
2023-01-15T16:51:32.088Z,7.3
2023-01-15T16:54:32.123Z,7.3
2023-01-15T16:57:32.129Z,7.3
2023-01-15T17:00:32.129Z,7.3
2023-01-15T17:03:32.142Z,7.3
2023-01-15T17:06:32.158Z,7.3
2023-01-15T17:09:32.168Z,7.3
2023-01-15T17:12:32.194Z,7.3
2023-01-15T17:15:32.276Z,7.3
2023-01-15T17:18:32.233Z,7.2
2023-01-15T17:21:32.246Z,7.2
2023-01-15T17:24:32.250Z,7.2
2023-01-15T17:27:32.265Z,7.2
2023-01-15T17:30:32.285Z,7.2
2023-01-15T17:33:32.301Z,7.1
2023-01-15T17:36:32.319Z,7.1
2023-01-15T17:39:32.331Z,7.1
2023-01-15T17:42:32.354Z,7.1
2023-01-15T17:45:32.380Z,7
2023-01-15T17:48:32.380Z,7
2023-01-15T17:51:32.396Z,7
2023-01-15T17:54:32.416Z,7
2023-01-15T17:57:32.425Z,7
2023-01-15T18:00:32.455Z,7
2023-01-15T18:03:32.463Z,7
2023-01-15T18:06:32.476Z,7.1
2023-01-15T18:09:32.495Z,7.1
2023-01-15T18:12:32.521Z,7.1
2023-01-15T18:15:32.524Z,7.1
2023-01-15T18:18:32.541Z,7.1
2023-01-15T18:21:32.553Z,7.1
2023-01-15T18:24:32.581Z,7.1
2023-01-15T18:27:32.594Z,7.2
2023-01-15T18:30:32.611Z,7.1
2023-01-15T18:33:32.627Z,7.1
2023-01-15T18:36:32.644Z,7.1
2023-01-15T18:39:32.676Z,7.1
2023-01-15T18:42:32.673Z,7.1
2023-01-15T18:45:32.684Z,7.2
2023-01-15T18:48:32.705Z,7.2
2023-01-15T18:51:32.719Z,7.2
2023-01-15T18:54:32.735Z,7.1
2023-01-15T18:57:32.753Z,7
2023-01-15T19:00:32.804Z,6.9
2023-01-15T19:03:32.800Z,6.9
2023-01-15T19:06:32.798Z,7
2023-01-15T19:09:32.818Z,7
2023-01-15T19:12:32.831Z,7
2023-01-15T19:15:32.845Z,7
2023-01-15T19:18:32.865Z,7
2023-01-15T19:21:32.888Z,7.1
2023-01-15T19:24:32.897Z,7
2023-01-15T19:27:32.914Z,7
2023-01-15T19:30:32.922Z,7
2023-01-15T19:33:32.942Z,7
2023-01-15T19:36:32.965Z,7
2023-01-15T19:39:33.018Z,7
2023-01-15T19:42:32.984Z,7
2023-01-15T19:45:32.997Z,6.9
2023-01-15T19:48:33.000Z,6.9
2023-01-15T19:51:33.010Z,6.9
2023-01-15T19:54:33.015Z,6.9
2023-01-15T19:57:33.017Z,7
2023-01-15T20:00:34.344Z,6.9
2023-01-15T20:03:33.019Z,6.9
2023-01-15T20:06:33.027Z,6.9
2023-01-15T20:09:33.016Z,6.9
2023-01-15T20:12:33.024Z,6.9
2023-01-15T20:15:33.018Z,6.9
2023-01-15T20:18:33.028Z,7
2023-01-15T20:21:33.024Z,7
2023-01-15T20:24:33.030Z,7.1
2023-01-15T20:27:33.027Z,7
2023-01-15T20:30:33.039Z,6.9
2023-01-15T20:33:33.035Z,6.9
2023-01-15T20:36:33.033Z,6.9
2023-01-15T20:39:33.036Z,6.9
2023-01-15T20:42:33.037Z,6.9
2023-01-15T20:45:33.059Z,6.8
2023-01-15T20:48:33.039Z,6.8
2023-01-15T20:51:33.041Z,6.8
2023-01-15T20:54:33.046Z,6.7
2023-01-15T20:57:33.048Z,6.8
2023-01-15T21:00:33.040Z,6.8
2023-01-15T21:03:33.037Z,6.8
2023-01-15T21:06:33.046Z,6.8
2023-01-15T21:09:33.046Z,6.8
2023-01-15T21:12:33.051Z,6.9
2023-01-15T21:15:33.046Z,6.9
2023-01-15T21:18:33.132Z,6.9
2023-01-15T21:21:33.100Z,6.8
2023-01-15T21:24:33.118Z,6.8
2023-01-15T21:27:33.113Z,6.8
2023-01-15T21:30:33.117Z,6.8
2023-01-15T21:33:33.118Z,6.8
2023-01-15T21:36:33.114Z,6.7
2023-01-15T21:39:33.117Z,6.7
2023-01-15T21:42:33.130Z,6.7
2023-01-15T21:45:33.140Z,6.7
2023-01-15T21:48:33.140Z,6.6
2023-01-15T21:51:33.153Z,6.6
2023-01-15T21:54:33.149Z,6.6
2023-01-15T21:57:33.144Z,6.5
2023-01-15T22:00:33.161Z,6.5
2023-01-15T22:03:33.144Z,6.4
2023-01-15T22:06:33.147Z,6.2
2023-01-15T22:09:33.152Z,6.1
2023-01-15T22:12:33.149Z,5.9
2023-01-15T22:15:33.156Z,5.8
2023-01-15T22:18:33.176Z,5.7
2023-01-15T22:21:33.152Z,5.6
2023-01-15T22:24:33.170Z,5.5
2023-01-15T22:27:33.155Z,5.5
2023-01-15T22:30:33.171Z,5.4
2023-01-15T22:33:33.162Z,5.4
2023-01-15T22:36:33.156Z,5.4
2023-01-15T22:39:33.160Z,5.4
2023-01-15T22:42:33.239Z,5.3
2023-01-15T22:45:33.159Z,5.3
2023-01-15T22:48:33.160Z,5.1
2023-01-15T22:51:33.163Z,5.1
2023-01-15T22:54:33.175Z,5
2023-01-15T22:57:33.166Z,5
2023-01-15T23:00:33.177Z,5
2023-01-15T23:03:33.174Z,5
2023-01-15T23:06:33.170Z,5
2023-01-15T23:09:33.173Z,4.9
2023-01-15T23:12:33.174Z,4.9
2023-01-15T23:15:33.257Z,4.8
2023-01-15T23:18:33.188Z,4.8
2023-01-15T23:21:33.185Z,4.7
2023-01-15T23:24:33.190Z,4.6
2023-01-15T23:27:33.190Z,4.6
2023-01-15T23:30:33.197Z,4.5
2023-01-15T23:33:33.216Z,4.5
2023-01-15T23:36:33.194Z,4.4
2023-01-15T23:39:33.200Z,4.4
2023-01-15T23:42:33.205Z,4.4
2023-01-15T23:45:33.204Z,4.5
2023-01-15T23:48:33.205Z,4.5
2023-01-15T23:51:33.236Z,4.6
2023-01-15T23:54:33.219Z,4.6
2023-01-15T23:57:33.224Z,4.6
